Time;durP1;ratioP1;P1;durP2;ratioP2;P2;SDS_P1;SDS_P2;PMS_P1;PMS_P2;Temp;Humidity;BMP_temperature;BMP_pressure;BME280_temperature;BME280_humidity;BME280_pressure;Samples;Min_cycle;Max_cycle;Signal;HPM_P1;HPM_P2
2022/11/30 00:00:34;;;;;;;5.43;4.27;;;6.20;99.90;;;;;;5076951;28;20611;-77
2022/11/30 00:03:01;;;;;;;5.63;4.60;;;6.20;99.90;;;;;;5058754;28;20244;-77
2022/11/30 00:05:26;;;;;;;4.73;4.23;;;6.20;99.90;;;;;;5059252;28;20177;-77
2022/11/30 00:07:53;;;;;;;5.37;4.10;;;6.20;99.90;;;;;;5077153;28;20606;-77
2022/11/30 00:10:20;;;;;;;5.20;4.03;;;6.20;99.90;;;;;;5076455;28;20207;-77
2022/11/30 00:12:46;;;;;;;5.30;4.50;;;6.20;99.90;;;;;;5059124;28;20172;-77
2022/11/30 00:15:13;;;;;;;4.90;4.40;;;6.20;99.90;;;;;;5058995;28;20230;-77
2022/11/30 00:17:45;;;;;;;6.07;4.47;;;6.20;99.90;;;;;;5058840;28;20634;-77
2022/11/30 00:20:13;;;;;;;5.77;4.50;;;6.20;99.90;;;;;;5058790;28;20181;-77
2022/11/30 00:22:39;;;;;;;5.87;4.30;;;6.20;99.90;;;;;;5076484;28;20180;-77
2022/11/30 00:25:04;;;;;;;6.50;4.67;;;6.10;99.90;;;;;;5076938;28;20188;-77
2022/11/30 00:27:34;;;;;;;7.43;5.03;;;6.20;99.90;;;;;;5059131;28;20267;-77
2022/11/30 00:30:00;;;;;;;5.57;4.90;;;6.20;99.90;;;;;;5058853;28;20194;-77
2022/11/30 00:32:27;;;;;;;6.60;4.80;;;6.20;99.90;;;;;;5057724;28;20177;-77
2022/11/30 00:34:53;;;;;;;6.80;4.30;;;6.30;99.90;;;;;;5058923;28;20238;-77
2022/11/30 00:37:19;;;;;;;8.07;5.00;;;6.30;99.90;;;;;;5057883;28;20169;-77
2022/11/30 00:39:45;;;;;;;7.40;5.10;;;6.20;99.90;;;;;;5058130;28;20210;-77
2022/11/30 00:42:10;;;;;;;6.70;4.90;;;6.20;99.90;;;;;;5109786;22;20253;-78
2022/11/30 00:44:36;;;;;;;6.00;4.63;;;6.20;99.90;;;;;;5054118;28;20174;-78
2022/11/30 00:47:02;;;;;;;11.47;6.00;;;6.20;99.90;;;;;;5053365;28;20184;-79
2022/11/30 00:49:27;;;;;;;7.50;4.97;;;6.20;99.90;;;;;;5053191;28;20234;-79
2022/11/30 00:51:53;;;;;;;7.83;4.77;;;6.20;99.90;;;;;;5052658;28;20311;-79
2022/11/30 00:54:18;;;;;;;4.37;3.80;;;6.20;99.90;;;;;;5053914;28;20212;-79
2022/11/30 00:56:44;;;;;;;7.23;4.13;;;6.20;99.90;;;;;;5053540;28;20568;-79
2022/11/30 00:59:09;;;;;;;5.73;4.33;;;6.10;99.90;;;;;;5052729;28;20176;-79
2022/11/30 01:01:35;;;;;;;5.90;4.60;;;6.10;99.90;;;;;;5053916;28;20226;-79
2022/11/30 01:04:01;;;;;;;6.57;4.90;;;6.10;99.90;;;;;;5053994;28;20169;-79
2022/11/30 01:06:27;;;;;;;8.87;5.17;;;6.20;99.90;;;;;;5052603;28;20178;-79
2022/11/30 01:08:53;;;;;;;8.23;5.17;;;6.20;99.90;;;;;;5053339;28;20201;-79
2022/11/30 01:11:24;;;;;;;9.27;5.27;;;6.20;99.90;;;;;;5053871;28;20189;-79
2022/11/30 01:13:50;;;;;;;13.17;5.90;;;6.20;99.90;;;;;;5053733;28;20173;-79
2022/11/30 01:16:23;;;;;;;17.57;6.00;;;6.20;99.90;;;;;;5052425;28;20205;-79
2022/11/30 01:18:49;;;;;;;10.07;5.73;;;6.10;99.90;;;;;;5053754;28;20171;-79
2022/11/30 01:21:19;;;;;;;8.50;5.20;;;6.10;99.90;;;;;;5052064;28;20189;-79
2022/11/30 01:23:44;;;;;;;17.63;6.53;;;6.10;99.90;;;;;;5052219;28;20245;-79
2022/11/30 01:26:11;;;;;;;9.50;5.23;;;6.10;99.90;;;;;;5052257;28;20205;-79
2022/11/30 01:28:37;;;;;;;6.77;5.00;;;6.10;99.90;;;;;;5052054;28;20172;-79
2022/11/30 01:31:05;;;;;;;7.23;5.10;;;6.10;99.90;;;;;;5053156;28;20293;-79
2022/11/30 01:33:31;;;;;;;7.77;5.47;;;6.10;99.90;;;;;;5052053;28;20659;-78
2022/11/30 01:36:08;;;;;;;10.17;5.70;;;6.10;99.90;;;;;;5052917;28;20237;-79
2022/11/30 01:38:36;;;;;;;7.93;5.40;;;6.10;99.90;;;;;;5053550;28;20256;-79
2022/11/30 01:41:03;;;;;;;8.80;5.20;;;6.20;99.90;;;;;;5051898;28;20208;-78
2022/11/30 01:43:36;;;;;;;7.10;5.23;;;6.20;99.90;;;;;;5051708;28;20205;-79
2022/11/30 01:46:01;;;;;;;10.40;4.93;;;6.20;99.90;;;;;;5049376;28;20329;-78
2022/11/30 01:48:28;;;;;;;9.47;5.40;;;6.10;99.90;;;;;;5061453;28;20252;-79
2022/11/30 01:50:54;;;;;;;6.83;5.23;;;6.10;99.90;;;;;;5053020;28;20338;-79
2022/11/30 01:53:20;;;;;;;6.63;4.73;;;6.10;99.90;;;;;;5052983;28;20188;-79
2022/11/30 01:55:48;;;;;;;7.70;5.60;;;6.10;99.90;;;;;;5051618;28;20193;-79
2022/11/30 01:58:24;;;;;;;6.80;5.00;;;6.10;99.90;;;;;;5053263;28;20250;-79
2022/11/30 02:00:49;;;;;;;8.57;5.33;;;6.20;99.90;;;;;;5051922;28;20211;-79
2022/11/30 02:03:38;;;;;;;6.63;5.00;;;6.20;99.90;;;;;;5052182;28;20176;-79
2022/11/30 02:06:04;;;;;;;6.53;4.70;;;6.20;99.90;;;;;;5052812;28;20196;-79
2022/11/30 02:08:31;;;;;;;5.70;4.80;;;6.10;99.90;;;;;;5051729;28;20189;-79
2022/11/30 02:11:01;;;;;;;7.03;4.70;;;6.20;99.90;;;;;;5051924;28;20254;-79
2022/11/30 02:13:45;;;;;;;6.40;5.00;;;6.10;99.90;;;;;;5052849;28;20173;-79
2022/11/30 02:16:26;;;;;;;5.80;4.77;;;6.10;99.90;;;;;;5051588;28;20242;-79
2022/11/30 02:19:09;;;;;;;5.50;4.17;;;6.10;99.90;;;;;;5051638;28;20656;-79
2022/11/30 02:22:19;;;;;;;5.70;4.47;;;6.10;99.90;;;;;;5052071;28;20193;-79
2022/11/30 02:24:50;;;;;;;6.43;4.53;;;6.20;99.90;;;;;;5005087;28;20177;-79
2022/11/30 02:27:44;;;;;;;5.90;4.90;;;6.20;99.90;;;;;;5053024;28;20161;-79
2022/11/30 02:30:15;;;;;;;5.57;4.80;;;6.20;99.90;;;;;;5053107;28;20530;-79
2022/11/30 02:32:57;;;;;;;5.97;4.27;;;6.20;99.90;;;;;;5051393;28;20199;-79
2022/11/30 02:35:27;;;;;;;5.50;4.53;;;6.20;99.90;;;;;;5051518;28;20196;-79
2022/11/30 02:37:55;;;;;;;5.13;4.23;;;6.20;99.90;;;;;;5052596;28;20714;-79
2022/11/30 02:40:21;;;;;;;7.30;4.33;;;6.10;99.90;;;;;;5053024;28;20243;-79
2022/11/30 02:42:50;;;;;;;5.30;4.50;;;6.10;99.90;;;;;;5051462;28;20189;-79
2022/11/30 02:45:17;;;;;;;5.37;4.43;;;6.20;99.90;;;;;;5052934;28;20168;-79
2022/11/30 02:47:44;;;;;;;6.33;4.60;;;6.20;99.90;;;;;;5051792;28;20264;-79
2022/11/30 02:50:16;;;;;;;4.90;4.30;;;6.20;99.90;;;;;;5052749;28;20547;-79
2022/11/30 02:52:42;;;;;;;5.23;4.10;;;6.20;99.90;;;;;;5051309;28;20193;-79
2022/11/30 02:55:10;;;;;;;5.60;4.50;;;6.20;99.90;;;;;;5053199;28;20235;-79
2022/11/30 02:57:36;;;;;;;6.83;4.67;;;6.20;99.90;;;;;;5055331;28;20642;-78
2022/11/30 03:00:07;;;;;;;5.47;4.30;;;6.20;99.90;;;;;;5056349;28;20177;-79
2022/11/30 03:02:33;;;;;;;5.00;4.30;;;6.20;99.90;;;;;;5054844;28;20201;-79
2022/11/30 03:04:59;;;;;;;6.33;4.43;;;6.20;99.90;;;;;;5056729;28;20237;-79
2022/11/30 03:07:24;;;;;;;6.37;4.27;;;6.20;99.90;;;;;;5055183;28;20209;-79
2022/11/30 03:09:50;;;;;;;6.67;4.50;;;6.20;99.90;;;;;;5055007;28;20179;-79
2022/11/30 03:12:15;;;;;;;6.23;4.53;;;6.10;99.90;;;;;;5054565;28;20193;-79
2022/11/30 03:14:41;;;;;;;5.03;4.30;;;6.10;99.90;;;;;;5056778;28;20244;-79
2022/11/30 03:17:07;;;;;;;5.13;4.33;;;6.10;99.90;;;;;;5056620;28;20180;-79
2022/11/30 03:19:32;;;;;;;6.53;4.57;;;6.10;99.90;;;;;;5056565;28;20173;-79
2022/11/30 03:21:58;;;;;;;4.87;4.37;;;6.10;99.90;;;;;;5056353;28;20193;-79
2022/11/30 03:24:24;;;;;;;5.67;4.20;;;6.10;99.90;;;;;;5056087;28;20181;-79
2022/11/30 03:26:50;;;;;;;4.40;3.90;;;6.10;99.90;;;;;;5054647;28;20192;-79
2022/11/30 03:29:16;;;;;;;6.87;4.60;;;6.10;99.90;;;;;;5054965;28;20181;-79
2022/11/30 03:31:42;;;;;;;5.67;4.50;;;6.10;99.90;;;;;;5055915;28;20200;-79
2022/11/30 03:34:07;;;;;;;5.67;4.80;;;6.00;99.90;;;;;;5055658;28;20207;-79
2022/11/30 03:36:33;;;;;;;5.23;4.10;;;6.10;99.90;;;;;;5054526;28;20234;-79
2022/11/30 03:38:58;;;;;;;5.50;4.50;;;6.00;99.90;;;;;;5054866;28;20177;-79
2022/11/30 03:41:24;;;;;;;6.80;4.50;;;6.10;99.90;;;;;;5055322;28;20259;-79
2022/11/30 03:43:49;;;;;;;5.90;4.03;;;6.10;99.90;;;;;;5056030;28;20176;-79
2022/11/30 03:46:15;;;;;;;5.30;4.60;;;6.10;99.90;;;;;;5052065;28;20542;-78
2022/11/30 03:48:41;;;;;;;5.07;4.37;;;6.10;99.90;;;;;;5063606;28;20180;-80
2022/11/30 03:51:07;;;;;;;4.87;4.30;;;6.10;99.90;;;;;;5055915;28;20287;-79
2022/11/30 03:53:32;;;;;;;6.27;4.20;;;6.10;99.90;;;;;;5054203;28;20173;-80
2022/11/30 03:56:01;;;;;;;6.43;4.10;;;6.10;99.90;;;;;;5054539;28;20278;-80
2022/11/30 03:58:27;;;;;;;6.57;4.47;;;6.10;99.90;;;;;;5053906;28;20192;-79
2022/11/30 04:01:01;;;;;;;4.93;4.17;;;6.10;99.90;;;;;;5055563;28;20200;-80
2022/11/30 04:03:28;;;;;;;5.07;4.17;;;6.10;99.90;;;;;;5053592;28;20263;-79
2022/11/30 04:05:54;;;;;;;8.03;4.00;;;6.10;99.90;;;;;;5053791;28;20233;-80
2022/11/30 04:08:20;;;;;;;5.97;4.13;;;6.10;99.90;;;;;;5054289;28;20315;-80
2022/11/30 04:10:46;;;;;;;6.40;4.13;;;6.10;99.90;;;;;;5054800;28;20257;-80
2022/11/30 04:13:12;;;;;;;6.20;4.13;;;6.00;99.90;;;;;;5054894;28;20178;-80
2022/11/30 04:15:38;;;;;;;5.10;3.90;;;6.00;99.90;;;;;;5055351;28;20281;-80
2022/11/30 04:18:04;;;;;;;5.30;3.87;;;6.00;99.90;;;;;;5054078;28;20195;-80
2022/11/30 04:20:30;;;;;;;5.57;4.10;;;6.10;99.90;;;;;;5053440;28;20717;-80
2022/11/30 04:22:58;;;;;;;6.17;4.07;;;6.10;99.90;;;;;;5054701;28;20174;-80
2022/11/30 04:25:24;;;;;;;5.47;4.07;;;6.10;99.90;;;;;;5053591;28;20234;-80
2022/11/30 04:27:49;;;;;;;5.30;4.13;;;6.10;99.90;;;;;;5053780;28;20600;-80
2022/11/30 04:30:16;;;;;;;4.60;4.10;;;6.20;99.90;;;;;;5055012;28;20177;-80
2022/11/30 04:32:41;;;;;;;5.47;4.53;;;6.20;99.90;;;;;;5054826;28;20203;-79
2022/11/30 04:35:08;;;;;;;5.50;4.40;;;6.20;99.90;;;;;;5054881;28;20197;-80
2022/11/30 04:37:33;;;;;;;5.50;4.27;;;6.10;99.90;;;;;;5053286;28;20172;-80
2022/11/30 04:39:59;;;;;;;5.07;4.00;;;6.10;99.90;;;;;;5052815;28;20170;-80
2022/11/30 04:42:25;;;;;;;6.47;3.97;;;6.10;99.90;;;;;;5054348;28;20260;-80
2022/11/30 04:44:50;;;;;;;4.77;3.70;;;6.10;99.90;;;;;;5054552;28;20211;-80
2022/11/30 04:47:16;;;;;;;5.83;3.80;;;6.10;99.90;;;;;;5053576;28;20185;-80
2022/11/30 04:49:41;;;;;;;6.33;4.07;;;6.00;99.90;;;;;;5053053;28;20180;-80
2022/11/30 04:52:07;;;;;;;4.87;4.10;;;6.00;99.90;;;;;;5054122;28;20673;-80
2022/11/30 04:54:32;;;;;;;4.70;4.00;;;6.00;99.90;;;;;;5052802;28;20230;-79
2022/11/30 04:56:58;;;;;;;7.50;4.90;;;6.10;99.90;;;;;;5053279;28;20725;-80
2022/11/30 04:59:24;;;;;;;4.97;4.10;;;6.00;99.90;;;;;;5053360;28;20173;-80
2022/11/30 05:01:49;;;;;;;5.33;4.03;;;6.00;99.90;;;;;;5053040;28;20189;-80
2022/11/30 05:04:15;;;;;;;5.30;4.20;;;6.10;99.90;;;;;;5052870;28;20180;-80
2022/11/30 05:06:40;;;;;;;4.67;3.90;;;6.10;99.90;;;;;;5052998;28;20264;-79
2022/11/30 05:09:06;;;;;;;4.90;4.03;;;6.10;99.90;;;;;;5052530;28;20174;-80
2022/11/30 05:11:31;;;;;;;5.33;4.07;;;6.10;99.90;;;;;;5052914;28;20654;-80
2022/11/30 05:13:57;;;;;;;4.00;3.60;;;6.10;99.90;;;;;;5052458;28;20162;-79
2022/11/30 05:16:22;;;;;;;5.17;4.37;;;6.10;99.90;;;;;;5052704;28;20246;-79
2022/11/30 05:18:48;;;;;;;4.63;3.90;;;6.10;99.90;;;;;;5052475;28;20181;-80
2022/11/30 05:21:14;;;;;;;4.80;4.07;;;6.10;99.90;;;;;;5052552;28;20202;-79
2022/11/30 05:23:39;;;;;;;5.57;4.30;;;6.10;99.90;;;;;;5052966;28;20181;-80
2022/11/30 05:26:05;;;;;;;6.87;4.40;;;6.20;99.90;;;;;;5053992;28;20184;-80
2022/11/30 05:28:31;;;;;;;5.07;4.40;;;6.20;99.90;;;;;;5053834;28;20177;-80
2022/11/30 05:31:02;;;;;;;4.40;4.00;;;6.20;99.90;;;;;;5053072;28;20205;-82
2022/11/30 05:33:28;;;;;;;6.07;4.23;;;6.10;99.90;;;;;;5053109;28;20180;-80
2022/11/30 05:35:53;;;;;;;4.63;4.03;;;6.10;99.90;;;;;;5053503;28;20202;-80
2022/11/30 05:38:19;;;;;;;6.00;4.33;;;6.00;99.90;;;;;;5052391;28;20176;-80
2022/11/30 05:40:44;;;;;;;7.37;4.30;;;6.00;99.90;;;;;;5051720;28;20578;-82
2022/11/30 05:43:10;;;;;;;7.00;4.87;;;6.10;99.90;;;;;;5051357;28;20180;-81
2022/11/30 05:45:36;;;;;;;6.23;4.33;;;6.10;99.90;;;;;;5053071;28;20264;-80
2022/11/30 05:48:01;;;;;;;5.77;4.37;;;6.10;99.90;;;;;;5052150;28;20238;-80
2022/11/30 05:50:27;;;;;;;5.00;4.17;;;6.10;99.90;;;;;;5063172;28;20173;-80
2022/11/30 05:52:56;;;;;;;5.77;4.47;;;6.10;99.90;;;;;;5073125;28;20164;-80
2022/11/30 05:55:25;;;;;;;5.63;4.37;;;6.10;99.90;;;;;;5071698;28;20210;-80
2022/11/30 05:57:52;;;;;;;6.07;4.80;;;6.10;99.90;;;;;;5071706;28;20174;-80
2022/11/30 06:00:18;;;;;;;5.43;4.23;;;6.10;99.90;;;;;;5072688;28;20243;-80
2022/11/30 06:02:44;;;;;;;6.23;4.37;;;6.10;99.90;;;;;;5070978;28;20620;-81
2022/11/30 06:05:09;;;;;;;5.57;4.43;;;6.10;99.90;;;;;;5072895;28;20661;-81
2022/11/30 06:07:35;;;;;;;6.27;4.20;;;6.00;99.90;;;;;;5072785;28;20176;-83
2022/11/30 06:10:01;;;;;;;5.50;4.20;;;6.00;99.90;;;;;;5071307;28;20212;-83
2022/11/30 06:12:26;;;;;;;5.53;4.43;;;6.00;99.90;;;;;;5070648;28;20192;-83
2022/11/30 06:14:52;;;;;;;5.23;4.40;;;6.00;99.90;;;;;;5070931;28;20273;-83
2022/11/30 06:17:17;;;;;;;5.63;4.50;;;6.10;99.90;;;;;;5070738;28;20183;-83
2022/11/30 06:19:43;;;;;;;5.70;4.20;;;6.10;99.90;;;;;;5072402;28;20182;-83
2022/11/30 06:22:08;;;;;;;5.10;4.27;;;6.10;99.90;;;;;;5072251;28;20619;-84
2022/11/30 06:24:34;;;;;;;6.83;4.73;;;6.10;99.90;;;;;;5072195;28;20183;-83
2022/11/30 06:26:59;;;;;;;6.83;4.73;;;6.10;99.90;;;;;;5070957;28;20191;-83
2022/11/30 06:29:25;;;;;;;6.67;4.67;;;6.10;99.90;;;;;;5070704;28;20176;-83
2022/11/30 06:31:51;;;;;;;6.27;4.47;;;6.10;99.90;;;;;;5056640;28;20347;-84
2022/11/30 06:34:16;;;;;;;9.93;4.57;;;6.10;99.90;;;;;;5063223;28;20177;-83
2022/11/30 06:36:42;;;;;;;5.83;4.10;;;6.10;99.90;;;;;;5056247;28;20213;-84
2022/11/30 06:39:09;;;;;;;6.33;4.70;;;6.10;99.90;;;;;;5055985;28;20180;-84
2022/11/30 06:41:34;;;;;;;5.40;4.27;;;6.10;99.90;;;;;;5074561;22;20232;-78
2022/11/30 06:44:00;;;;;;;5.33;4.20;;;6.10;99.90;;;;;;5017541;28;20177;-77
2022/11/30 06:46:26;;;;;;;5.93;3.97;;;6.10;99.90;;;;;;5035030;28;20181;-77
2022/11/30 06:48:52;;;;;;;4.33;3.57;;;6.60;99.90;;;;;;5017973;28;20178;-77
2022/11/30 06:51:18;;;;;;;4.73;3.80;;;7.20;99.90;;;;;;5017928;28;20438;-77
2022/11/30 06:53:44;;;;;;;4.93;4.23;;;7.60;99.90;;;;;;5035318;28;20178;-78
2022/11/30 06:56:10;;;;;;;4.83;4.33;;;7.90;99.90;;;;;;5035181;28;20214;-78
2022/11/30 06:58:38;;;;;;;5.07;3.57;;;7.70;99.90;;;;;;5035696;28;20253;-79
2022/11/30 07:01:05;;;;;;;5.07;4.17;;;7.30;99.90;;;;;;5036460;28;20181;-79
2022/11/30 07:03:30;;;;;;;5.60;4.20;;;7.00;99.90;;;;;;5036956;28;20182;-78
2022/11/30 07:05:56;;;;;;;4.83;4.10;;;6.80;99.90;;;;;;5018839;28;20174;-78
2022/11/30 07:08:21;;;;;;;6.17;4.50;;;6.60;99.90;;;;;;5019071;28;20170;-78
2022/11/30 07:10:47;;;;;;;10.00;5.17;;;6.50;99.90;;;;;;5019321;28;20178;-79
2022/11/30 07:13:15;;;;;;;5.83;4.63;;;6.40;99.90;;;;;;5036178;28;20218;-79
2022/11/30 07:15:42;;;;;;;7.10;4.50;;;6.40;99.90;;;;;;5019168;28;20199;-82
2022/11/30 07:18:08;;;;;;;5.10;4.30;;;6.30;99.90;;;;;;5018704;28;20201;-79
2022/11/30 07:20:35;;;;;;;7.60;4.60;;;6.40;99.90;;;;;;5036288;28;20170;-79
2022/11/30 07:26:05;;;;;;;7.30;4.70;;;6.30;99.90;;;;;;5034570;28;20203;-78
2022/11/30 07:26:05;;;;;;;6.30;4.40;;;6.20;99.90;;;;;;5034363;28;20181;-77
2022/11/30 07:28:38;;;;;;;8.50;4.80;;;6.30;99.90;;;;;;5034704;28;20551;-77
2022/11/30 07:31:27;;;;;;;5.87;5.00;;;6.30;99.90;;;;;;5018235;28;20182;-78
2022/11/30 07:33:53;;;;;;;7.03;5.10;;;6.30;99.90;;;;;;5035230;28;20174;-79
2022/11/30 07:36:20;;;;;;;7.27;4.63;;;6.30;99.90;;;;;;5036520;28;20244;-78
2022/11/30 07:38:46;;;;;;;6.70;5.13;;;6.30;99.90;;;;;;5017554;28;20193;-79
2022/11/30 07:41:12;;;;;;;6.53;5.30;;;6.30;99.90;;;;;;5035295;28;20206;-79
2022/11/30 07:43:38;;;;;;;6.73;4.70;;;6.30;99.90;;;;;;5035668;28;20174;-79
2022/11/30 07:46:04;;;;;;;6.77;5.27;;;6.40;99.90;;;;;;5017640;28;20185;-78
2022/11/30 07:48:30;;;;;;;6.83;5.00;;;6.40;99.90;;;;;;5016946;28;20174;-77
2022/11/30 07:51:04;;;;;;;7.23;5.73;;;6.40;99.90;;;;;;5034565;28;20444;-78
2022/11/30 07:53:30;;;;;;;7.57;4.97;;;6.40;99.90;;;;;;5016634;28;20177;-77
2022/11/30 07:56:01;;;;;;;6.70;4.93;;;6.40;99.90;;;;;;5016589;28;20201;-78
2022/11/30 07:58:28;;;;;;;6.17;4.97;;;6.50;99.90;;;;;;5034552;28;20548;-78
2022/11/30 08:00:54;;;;;;;6.83;5.03;;;6.50;99.90;;;;;;5034201;28;20178;-78
2022/11/30 08:03:19;;;;;;;7.70;5.40;;;6.50;99.90;;;;;;5034195;28;20170;-78
2022/11/30 08:05:45;;;;;;;6.37;4.83;;;6.50;99.90;;;;;;5034175;28;20189;-78
2022/11/30 08:08:10;;;;;;;20.40;15.53;;;6.40;99.90;;;;;;5034648;28;20182;-77
2022/11/30 08:10:36;;;;;;;17.83;12.53;;;6.40;99.90;;;;;;5016428;28;20192;-77
2022/11/30 08:13:01;;;;;;;7.37;6.13;;;6.40;99.90;;;;;;5016125;28;20201;-78
2022/11/30 08:15:27;;;;;;;7.60;5.60;;;6.40;99.90;;;;;;5016259;28;20209;-77
2022/11/30 08:17:54;;;;;;;7.87;5.80;;;6.50;99.90;;;;;;5016495;28;20561;-78
2022/11/30 08:20:20;;;;;;;7.17;6.33;;;6.50;99.90;;;;;;5033796;28;20176;-78
2022/11/30 08:22:46;;;;;;;8.10;6.17;;;6.50;99.90;;;;;;5033666;28;20194;-78
2022/11/30 08:25:11;;;;;;;10.10;6.37;;;6.60;99.90;;;;;;5033741;28;20178;-78
2022/11/30 08:27:37;;;;;;;7.17;5.53;;;6.60;99.90;;;;;;5016192;28;20220;-78
2022/11/30 08:30:03;;;;;;;9.77;5.83;;;6.60;99.90;;;;;;5016030;28;20185;-77
2022/11/30 08:32:29;;;;;;;8.83;6.20;;;6.70;99.90;;;;;;5015666;28;20194;-78
2022/11/30 08:34:55;;;;;;;8.83;6.10;;;6.70;99.90;;;;;;5015789;28;20263;-77
2022/11/30 08:37:20;;;;;;;7.83;5.97;;;6.80;99.90;;;;;;5015781;28;20185;-78
2022/11/30 08:39:46;;;;;;;8.47;6.40;;;6.80;99.90;;;;;;5015913;28;20273;-77
2022/11/30 08:42:11;;;;;;;7.27;5.73;;;6.90;99.90;;;;;;5015540;28;20221;-77
2022/11/30 08:44:37;;;;;;;7.57;5.97;;;6.90;99.90;;;;;;5015791;28;20193;-77
2022/11/30 08:47:03;;;;;;;7.30;5.83;;;7.00;99.90;;;;;;5015744;28;20182;-78
2022/11/30 08:49:29;;;;;;;8.37;6.40;;;7.10;99.90;;;;;;5033754;28;20188;-77
2022/11/30 08:51:55;;;;;;;7.13;5.87;;;7.10;99.90;;;;;;5015941;28;20201;-78
2022/11/30 08:54:21;;;;;;;8.37;6.30;;;7.20;99.90;;;;;;5014855;28;20186;-78
2022/11/30 08:56:46;;;;;;;9.13;6.50;;;7.20;99.90;;;;;;5015683;28;20652;-78
2022/11/30 08:59:12;;;;;;;9.03;6.53;;;7.10;99.90;;;;;;5015571;28;20212;-78
2022/11/30 09:01:38;;;;;;;8.83;6.63;;;7.10;99.90;;;;;;5015560;28;20203;-77
2022/11/30 09:04:03;;;;;;;8.30;5.60;;;7.10;99.90;;;;;;5015376;28;20276;-77
2022/11/30 09:06:29;;;;;;;7.80;6.27;;;7.20;99.90;;;;;;5015408;28;20190;-77
2022/11/30 09:08:57;;;;;;;8.23;6.70;;;7.20;99.90;;;;;;5016257;28;20181;-79
2022/11/30 09:11:27;;;;;;;8.83;6.63;;;7.40;99.90;;;;;;5033721;28;20211;-79
2022/11/30 09:13:56;;;;;;;9.80;6.60;;;7.40;99.90;;;;;;5015346;28;20228;-78
2022/11/30 09:16:22;;;;;;;9.20;6.87;;;7.40;99.90;;;;;;5032638;28;20238;-78
2022/11/30 09:18:49;;;;;;;8.30;6.13;;;7.40;99.90;;;;;;5032941;28;20562;-77
2022/11/30 09:21:17;;;;;;;8.47;6.70;;;7.30;99.90;;;;;;5032408;28;20194;-78
2022/11/30 09:23:44;;;;;;;7.30;5.90;;;7.30;99.90;;;;;;5014663;28;20180;-78
2022/11/30 09:26:12;;;;;;;7.97;6.40;;;7.30;99.90;;;;;;5014905;28;20556;-78
2022/11/30 09:28:38;;;;;;;7.50;6.40;;;7.30;99.90;;;;;;5014840;28;20179;-78
2022/11/30 09:31:11;;;;;;;8.03;6.13;;;7.20;99.90;;;;;;5014801;28;20280;-78
2022/11/30 09:33:37;;;;;;;7.43;6.07;;;7.20;99.90;;;;;;5014572;28;20242;-78
2022/11/30 09:36:05;;;;;;;6.50;4.83;;;7.20;99.90;;;;;;5014764;28;20212;-78
2022/11/30 09:38:31;;;;;;;6.83;5.30;;;7.30;99.90;;;;;;5014833;28;20642;-78
2022/11/30 09:40:59;;;;;;;5.87;5.00;;;7.70;99.90;;;;;;5014774;28;20180;-78
2022/11/30 09:44:04;;;;;;;7.60;5.53;;;7.90;99.90;;;;;;5032170;28;20185;-78
2022/11/30 09:46:42;;;;;;;7.43;5.83;;;7.80;99.90;;;;;;5014433;28;20281;-80
2022/11/30 09:49:25;;;;;;;6.83;5.53;;;7.60;99.90;;;;;;5015547;28;20180;-81
2022/11/30 09:51:53;;;;;;;7.20;5.67;;;7.50;99.90;;;;;;5032656;28;20199;-78
2022/11/30 09:54:38;;;;;;;7.10;5.63;;;7.40;99.90;;;;;;5032135;28;20174;-78
2022/11/30 09:57:22;;;;;;;7.40;5.70;;;7.50;99.90;;;;;;5032713;28;20186;-78
2022/11/30 09:59:57;;;;;;;7.63;5.97;;;7.40;99.90;;;;;;5032366;28;20175;-78
2022/11/30 10:02:33;;;;;;;6.70;5.33;;;7.40;99.90;;;;;;5031802;28;20191;-78
2022/11/30 10:05:00;;;;;;;6.57;5.60;;;7.40;99.90;;;;;;5031707;28;20171;-77
2022/11/30 10:07:40;;;;;;;7.50;6.10;;;7.40;99.90;;;;;;5014495;28;20183;-78
2022/11/30 10:10:21;;;;;;;7.27;5.80;;;7.50;99.90;;;;;;5032566;28;20179;-78
2022/11/30 10:13:13;;;;;;;7.60;5.50;;;7.50;99.90;;;;;;5031774;28;20198;-78
2022/11/30 10:15:56;;;;;;;6.17;5.57;;;7.70;99.90;;;;;;5031852;28;20204;-78
2022/11/30 10:18:54;;;;;;;6.80;5.60;;;7.50;99.90;;;;;;5014416;28;20171;-78
2022/11/30 10:21:56;;;;;;;6.53;5.70;;;7.60;99.90;;;;;;5014339;28;20186;-78
2022/11/30 10:24:40;;;;;;;7.83;6.23;;;7.50;99.90;;;;;;4976935;28;20603;-77
2022/11/30 10:27:30;;;;;;;6.43;5.50;;;7.60;99.90;;;;;;5014382;28;20173;-78
2022/11/30 10:29:59;;;;;;;6.30;5.53;;;7.60;99.90;;;;;;5014147;28;20176;-78
2022/11/30 10:32:34;;;;;;;6.87;5.43;;;7.60;99.90;;;;;;5014224;28;20200;-78
2022/11/30 10:35:20;;;;;;;5.87;5.07;;;7.70;99.90;;;;;;5014152;28;20202;-78
2022/11/30 10:37:48;;;;;;;6.80;6.10;;;7.70;99.90;;;;;;5031461;28;20228;-78
2022/11/30 10:40:25;;;;;;;6.67;5.40;;;7.70;99.90;;;;;;5014187;28;20177;-78
2022/11/30 10:42:57;;;;;;;6.87;5.20;;;7.70;99.90;;;;;;5031650;28;20206;-78
2022/11/30 10:45:26;;;;;;;7.83;6.37;;;7.70;99.90;;;;;;5014309;28;20261;-78
2022/11/30 10:47:58;;;;;;;6.30;5.20;;;7.70;99.90;;;;;;5032103;28;20262;-78
2022/11/30 10:50:27;;;;;;;5.87;5.17;;;7.80;99.90;;;;;;5031718;28;20194;-78
2022/11/30 10:52:56;;;;;;;6.37;5.00;;;7.80;99.90;;;;;;5013990;28;20593;-78
2022/11/30 10:55:25;;;;;;;5.97;4.97;;;7.80;99.90;;;;;;5014506;28;20230;-78
2022/11/30 10:58:01;;;;;;;5.97;5.10;;;7.60;99.90;;;;;;5031865;28;20199;-77
2022/11/30 11:00:27;;;;;;;8.87;7.33;;;7.60;99.90;;;;;;5013965;28;20187;-78
2022/11/30 11:02:52;;;;;;;8.27;6.60;;;7.60;99.90;;;;;;5029357;28;20204;-78
2022/11/30 11:05:23;;;;;;;7.27;6.27;;;7.60;99.90;;;;;;5013741;28;20170;-78
2022/11/30 11:08:15;;;;;;;9.13;8.23;;;7.60;99.90;;;;;;5031293;28;20641;-78
2022/11/30 11:10:48;;;;;;;6.50;5.43;;;7.60;99.90;;;;;;5013962;28;20199;-78
2022/11/30 11:13:38;;;;;;;5.50;4.63;;;7.50;99.90;;;;;;5013468;28;20201;-77
2022/11/30 11:16:07;;;;;;;5.53;4.50;;;7.50;99.90;;;;;;5022619;28;20283;-78
2022/11/30 11:18:34;;;;;;;5.90;5.20;;;7.50;99.90;;;;;;5014868;28;20179;-78
2022/11/30 11:21:11;;;;;;;5.80;5.00;;;7.50;99.90;;;;;;5034899;28;20167;-78
2022/11/30 11:23:41;;;;;;;6.43;5.30;;;7.60;99.90;;;;;;5017151;28;20170;-78
2022/11/30 11:26:17;;;;;;;6.33;5.27;;;7.60;99.90;;;;;;5017325;28;20181;-78
2022/11/30 11:28:45;;;;;;;5.27;4.67;;;7.70;99.90;;;;;;5017289;28;20185;-78
2022/11/30 11:31:47;;;;;;;5.73;4.80;;;7.70;99.90;;;;;;5017344;28;20747;-78
2022/11/30 11:34:25;;;;;;;7.33;5.20;;;7.70;99.90;;;;;;5017015;28;20648;-77
2022/11/30 11:37:13;;;;;;;6.63;5.20;;;7.70;99.90;;;;;;5016705;28;20537;-78
2022/11/30 11:39:39;;;;;;;6.70;5.43;;;7.70;99.90;;;;;;5034966;28;20182;-78
2022/11/30 11:42:11;;;;;;;6.70;5.60;;;7.80;99.90;;;;;;5034625;28;20218;-79
2022/11/30 11:44:37;;;;;;;5.90;5.30;;;7.80;99.90;;;;;;5033758;28;20172;-80
2022/11/30 11:47:06;;;;;;;5.80;5.13;;;7.90;99.90;;;;;;5037720;28;20180;-78
2022/11/30 11:49:35;;;;;;;5.93;5.20;;;7.90;99.90;;;;;;5036742;28;20184;-79
2022/11/30 11:52:07;;;;;;;6.73;5.33;;;7.90;99.90;;;;;;5035408;28;20702;-78
2022/11/30 11:55:04;;;;;;;6.87;4.83;;;7.90;99.90;;;;;;5036940;28;20585;-77
2022/11/30 11:57:52;;;;;;;7.00;4.90;;;8.60;99.90;;;;;;5033597;28;20181;-77
2022/11/30 12:00:19;;;;;;;6.57;4.87;;;8.80;99.90;;;;;;5035193;28;20196;-77
2022/11/30 12:03:16;;;;;;;6.63;5.67;;;8.60;99.90;;;;;;5037844;28;20200;-77
2022/11/30 12:05:52;;;;;;;7.03;5.67;;;8.40;99.90;;;;;;5036691;28;20205;-77
2022/11/30 12:08:48;;;;;;;6.30;5.40;;;8.30;99.90;;;;;;5037417;28;20646;-77
2022/11/30 12:11:30;;;;;;;6.70;5.57;;;8.30;99.90;;;;;;5036536;28;20201;-78
2022/11/30 12:13:56;;;;;;;7.37;5.67;;;8.20;99.90;;;;;;5036458;28;20666;-78
2022/11/30 12:16:21;;;;;;;6.73;5.57;;;8.90;99.90;;;;;;5037892;28;20219;-78
2022/11/30 12:19:08;;;;;;;7.03;5.80;;;8.70;99.90;;;;;;5037510;28;20548;-78
2022/11/30 12:22:12;;;;;;;6.17;5.57;;;8.50;99.90;;;;;;5037776;28;20263;-78
2022/11/30 12:24:51;;;;;;;7.87;6.07;;;8.30;99.90;;;;;;4921770;29;20183;-78
2022/11/30 12:27:35;;;;;;;5.80;5.20;;;8.20;99.90;;;;;;5011250;28;20179;-78
2022/11/30 12:30:22;;;;;;;7.27;5.80;;;8.20;99.90;;;;;;5020269;28;20227;-78
2022/11/30 12:33:05;;;;;;;6.40;5.50;;;8.20;99.90;;;;;;5037518;28;20285;-77
2022/11/30 12:35:49;;;;;;;7.87;6.70;;;8.10;99.90;;;;;;5036664;28;20262;-79
2022/11/30 12:38:20;;;;;;;7.00;5.80;;;8.10;99.90;;;;;;5018468;28;20177;-78
2022/11/30 12:41:09;;;;;;;6.87;5.70;;;8.10;99.90;;;;;;5018784;28;20429;-78
2022/11/30 12:43:43;;;;;;;6.83;5.43;;;8.00;99.90;;;;;;5108734;22;20225;-78
2022/11/30 12:46:21;;;;;;;6.10;5.47;;;8.10;99.90;;;;;;5054745;28;20172;-80
2022/11/30 12:49:02;;;;;;;7.53;6.03;;;8.10;99.90;;;;;;5037860;28;20177;-79
2022/11/30 12:51:34;;;;;;;10.77;6.97;;;8.10;99.90;;;;;;5055027;28;20182;-79
2022/11/30 12:54:02;;;;;;;18.57;8.67;;;8.00;99.90;;;;;;5034809;28;20647;-78
2022/11/30 12:56:41;;;;;;;13.57;9.33;;;9.50;99.90;;;;;;5018640;28;20571;-78
2022/11/30 12:59:36;;;;;;;7.40;6.10;;;9.80;99.90;;;;;;5030212;28;20189;-80
2022/11/30 13:02:39;;;;;;;11.50;8.33;;;9.40;99.90;;;;;;5039593;28;20213;-79
2022/11/30 13:05:16;;;;;;;8.50;4.67;;;8.80;99.90;;;;;;5026514;28;20181;-81
2022/11/30 13:07:47;;;;;;;6.03;5.03;;;8.80;99.90;;;;;;5018327;28;20173;-79
2022/11/30 13:10:33;;;;;;;5.40;4.80;;;9.10;99.90;;;;;;5019360;28;20556;-79